createdAt,value
2023-05-14T00:00:12.374Z,95.0939
2023-05-14T00:01:13.148Z,95.2874
2023-05-14T00:02:13.849Z,95.4160
2023-05-14T00:03:16.053Z,95.0287
2023-05-14T00:04:16.231Z,95.3018
2023-05-14T00:05:16.911Z,95.5305
2023-05-14T00:06:16.933Z,95.6861
2023-05-14T00:07:17.592Z,95.8875
2023-05-14T00:08:18.297Z,96.0264
2023-05-14T00:10:18.542Z,95.6190
2023-05-14T00:11:18.551Z,95.9608
2023-05-14T00:12:18.603Z,96.2527
2023-05-14T00:13:18.634Z,96.3844
2023-05-14T00:15:19.474Z,96.2320
2023-05-14T00:16:19.558Z,96.0344
2023-05-14T00:18:20.520Z,95.9456
2023-05-14T00:19:41.551Z,95.9002
2023-05-14T00:20:23.020Z,95.9215
2023-05-14T00:21:23.943Z,95.9842
2023-05-14T00:22:24.582Z,96.0485
2023-05-14T00:23:24.636Z,96.0734
2023-05-14T00:24:25.314Z,96.0776
2023-05-14T00:25:25.372Z,96.0054
2023-05-14T00:26:25.401Z,95.8989
2023-05-14T00:27:26.033Z,95.8391
2023-05-14T00:28:26.078Z,95.9072
2023-05-14T00:29:26.121Z,95.9868
2023-05-14T00:30:26.190Z,96.0422
2023-05-14T00:31:26.883Z,96.1518
2023-05-14T00:32:26.914Z,96.2721
2023-05-14T00:33:27.767Z,96.2676
2023-05-14T00:34:28.450Z,96.2330
2023-05-14T00:35:28.484Z,96.2489
2023-05-14T00:36:29.073Z,96.2789
2023-05-14T00:37:30.061Z,96.3898
2023-05-14T00:38:30.090Z,96.3804
2023-05-14T00:39:30.891Z,96.3144
2023-05-14T00:40:31.988Z,96.2574
2023-05-14T00:41:32.053Z,96.1137
2023-05-14T00:42:32.697Z,96.0502
2023-05-14T00:43:33.650Z,96.0030
2023-05-14T00:45:36.901Z,96.0795
2023-05-14T00:46:37.883Z,96.1524
2023-05-14T00:47:37.947Z,96.1530
2023-05-14T00:48:38.767Z,96.1002
2023-05-14T00:49:38.742Z,96.0450
2023-05-14T00:50:39.472Z,96.0398
2023-05-14T00:51:40.612Z,96.0490
2023-05-14T00:52:41.344Z,96.0328
2023-05-14T00:53:41.404Z,96.0999
2023-05-14T00:54:41.430Z,96.2620
2023-05-14T00:55:41.495Z,96.1630
2023-05-14T00:56:42.077Z,96.0888
2023-05-14T00:57:43.029Z,96.0890
2023-05-14T00:58:43.061Z,96.1096
2023-05-14T00:59:43.138Z,96.0476
2023-05-14T01:00:43.267Z,95.9265
2023-05-14T01:01:43.957Z,95.7853
2023-05-14T01:02:44.065Z,95.6974
2023-05-14T01:03:44.245Z,95.6272
2023-05-14T01:04:44.968Z,95.5990
2023-05-14T01:05:44.985Z,95.6101
2023-05-14T01:06:45.664Z,95.5902
2023-05-14T01:07:46.334Z,95.5478
2023-05-14T01:08:47.057Z,95.4770
2023-05-14T01:09:47.101Z,95.5098
2023-05-14T01:10:47.155Z,95.4242
2023-05-14T01:11:47.864Z,95.3172
2023-05-14T01:12:47.908Z,95.5307
2023-05-14T01:13:48.993Z,95.6659
2023-05-14T01:14:49.930Z,95.8433
2023-05-14T01:15:49.954Z,96.0630
2023-05-14T01:16:50.081Z,96.1731
2023-05-14T01:17:50.158Z,96.0405
2023-05-14T01:18:50.266Z,96.0549
2023-05-14T01:19:50.341Z,95.8724
2023-05-14T01:20:50.384Z,95.5645
2023-05-14T01:21:50.427Z,95.3326
2023-05-14T01:22:50.452Z,95.2857
2023-05-14T01:23:50.523Z,95.1910
2023-05-14T01:24:50.558Z,95.0699
2023-05-14T01:25:50.578Z,95.0797
2023-05-14T01:26:50.626Z,95.1805
2023-05-14T01:27:51.006Z,95.2362
2023-05-14T01:28:51.104Z,95.3128
2023-05-14T01:29:51.114Z,95.4738
2023-05-14T01:30:51.774Z,95.6913
2023-05-14T01:31:51.833Z,95.7290
2023-05-14T01:32:52.482Z,95.7664
2023-05-14T01:33:53.307Z,95.7680
2023-05-14T01:34:53.612Z,95.5894
2023-05-14T01:35:54.356Z,95.4858
2023-05-14T01:36:54.699Z,95.4127
2023-05-14T01:37:54.739Z,95.3601
2023-05-14T01:38:55.926Z,95.3613
2023-05-14T01:39:55.998Z,95.3541
2023-05-14T01:40:56.426Z,95.4814
2023-05-14T01:41:57.187Z,95.6665
2023-05-14T01:42:57.253Z,95.7613
2023-05-14T01:43:58.066Z,96.0088
2023-05-14T01:44:58.764Z,96.1338
2023-05-14T01:45:58.816Z,96.0942
2023-05-14T01:46:59.492Z,95.7995
2023-05-14T01:48:00.796Z,95.7024
2023-05-14T01:49:00.856Z,95.7415
2023-05-14T01:50:01.491Z,95.8791
2023-05-14T01:51:01.692Z,95.9879
2023-05-14T01:53:02.982Z,95.8438
2023-05-14T01:54:03.008Z,95.9065
2023-05-14T01:55:03.691Z,96.0666
2023-05-14T01:56:04.302Z,96.0480
2023-05-14T01:57:05.063Z,95.9514
2023-05-14T01:58:06.556Z,95.7886
2023-05-14T01:59:06.597Z,95.7778
2023-05-14T02:00:07.258Z,96.0000
2023-05-14T02:01:08.603Z,96.0813
2023-05-14T02:07:13.546Z,96.5850
2023-05-14T02:08:13.583Z,96.7313
2023-05-14T02:09:13.612Z,96.8632
2023-05-14T02:10:14.243Z,96.8998
2023-05-14T02:11:14.280Z,96.8227
2023-05-14T02:13:15.142Z,96.4905
2023-05-14T02:14:16.276Z,96.3539
2023-05-14T02:19:23.936Z,96.4040
2023-05-14T02:20:24.624Z,96.4660
2023-05-14T02:21:25.189Z,96.5352
2023-05-14T02:22:26.039Z,96.4649
2023-05-14T02:23:37.983Z,96.3142
2023-05-14T02:24:26.703Z,96.3268
2023-05-14T02:25:27.548Z,96.3558
2023-05-14T02:26:28.218Z,96.4188
2023-05-14T02:27:28.671Z,96.4335
2023-05-14T02:28:29.322Z,96.5022
2023-05-14T02:29:29.424Z,96.6789
2023-05-14T02:30:29.817Z,96.5998
2023-05-14T02:31:30.898Z,96.3873
2023-05-14T02:32:31.250Z,96.2616
2023-05-14T02:33:32.452Z,96.2259
2023-05-14T02:34:33.484Z,96.0834
2023-05-14T02:35:33.559Z,96.0152
2023-05-14T02:36:34.404Z,95.9300
2023-05-14T02:37:35.630Z,95.9600
2023-05-14T02:38:35.692Z,96.0585
2023-05-14T02:39:36.361Z,96.1016
2023-05-14T02:40:36.504Z,96.2693
2023-05-14T02:41:37.933Z,96.3918
2023-05-14T02:42:38.856Z,96.5566
2023-05-14T02:43:38.911Z,96.6905
2023-05-14T02:44:40.416Z,96.8360
2023-05-14T02:45:41.169Z,97.0041
2023-05-14T02:46:41.616Z,97.0699
2023-05-14T02:47:42.607Z,97.1656
2023-05-14T02:48:43.785Z,97.1948
2023-05-14T02:49:43.835Z,97.2414
2023-05-14T02:50:44.703Z,97.2836
2023-05-14T02:51:44.968Z,97.3131
2023-05-14T02:52:45.109Z,97.3628
2023-05-14T02:53:45.344Z,97.3946
2023-05-14T02:54:46.420Z,97.3996
2023-05-14T02:55:46.513Z,97.3780
2023-05-14T02:56:47.375Z,97.3974
2023-05-14T02:57:47.633Z,97.4553
2023-05-14T02:59:48.268Z,97.4427
2023-05-14T03:00:48.854Z,97.4289
2023-05-14T03:01:50.400Z,97.4560
2023-05-14T03:02:51.124Z,97.4492
2023-05-14T03:03:51.883Z,97.4388
2023-05-14T03:04:52.717Z,97.4616
2023-05-14T03:05:52.927Z,97.4923
2023-05-14T03:06:53.575Z,97.5202
2023-05-14T03:07:54.526Z,97.5616
2023-05-14T03:08:54.754Z,97.5857
2023-05-14T03:09:55.512Z,97.5528
2023-05-14T03:10:56.327Z,97.5021
2023-05-14T03:11:56.779Z,97.4836
2023-05-14T03:12:57.638Z,97.4763
2023-05-14T03:13:57.693Z,97.4293
2023-05-14T03:14:58.998Z,97.4025
2023-05-14T03:15:59.939Z,97.3007
2023-05-14T03:17:00.841Z,97.3038
2023-05-14T03:18:01.123Z,97.3505
2023-05-14T03:19:01.322Z,97.4078
2023-05-14T03:20:01.968Z,97.4130
2023-05-14T03:21:02.824Z,97.3833
2023-05-14T03:22:02.882Z,97.3719
2023-05-14T03:23:03.139Z,97.4063
2023-05-14T03:24:03.375Z,97.4865
2023-05-14T03:25:04.249Z,97.5266
2023-05-14T03:26:04.576Z,97.5826
2023-05-14T03:27:04.638Z,97.6218
2023-05-14T03:28:05.461Z,97.6629
2023-05-14T03:29:05.516Z,97.7521
2023-05-14T03:30:06.770Z,97.8105
2023-05-14T03:31:07.569Z,97.8884
2023-05-14T03:32:08.279Z,97.9386
2023-05-14T03:33:09.108Z,97.9979
2023-05-14T03:34:09.205Z,98.0922
2023-05-14T03:35:10.782Z,98.1693
2023-05-14T03:36:11.754Z,98.2603
2023-05-14T03:38:13.236Z,98.3776
2023-05-14T03:39:13.713Z,98.4373
2023-05-14T03:40:14.969Z,98.4959
2023-05-14T03:41:16.007Z,98.5460
2023-05-14T03:42:16.889Z,98.6061
2023-05-14T03:43:17.005Z,98.6727
2023-05-14T03:44:17.965Z,98.7355
2023-05-14T03:45:19.574Z,98.7515
2023-05-14T03:46:21.521Z,98.7534
2023-05-14T03:48:25.359Z,98.7804
2023-05-14T03:49:25.491Z,98.7988
2023-05-14T03:50:26.347Z,98.8342
2023-05-14T03:51:27.113Z,98.8614
2023-05-14T03:52:27.155Z,98.8869
2023-05-14T03:53:27.887Z,98.9095
2023-05-14T03:54:28.499Z,98.9516
2023-05-14T03:55:28.603Z,98.9772
2023-05-14T03:56:29.768Z,99.0119
2023-05-14T03:57:30.411Z,99.0256
2023-05-14T03:58:30.501Z,99.0600
2023-05-14T03:59:31.841Z,99.0852
2023-05-14T04:00:32.932Z,99.1062
2023-05-14T04:01:32.999Z,99.1137
2023-05-14T04:02:33.805Z,99.1076
2023-05-14T04:03:34.094Z,99.0853
2023-05-14T04:04:35.447Z,99.0723
2023-05-14T04:05:35.554Z,99.0639
2023-05-14T04:06:35.624Z,99.0483
2023-05-14T04:07:36.405Z,99.0263
2023-05-14T04:08:37.237Z,98.9949
2023-05-14T04:09:37.961Z,98.9514
2023-05-14T04:10:38.071Z,98.9109
2023-05-14T04:11:38.145Z,98.8581
2023-05-14T04:12:38.906Z,98.7846
2023-05-14T04:13:39.461Z,98.7522
2023-05-14T04:14:39.553Z,98.7389
2023-05-14T04:15:40.558Z,98.7188
2023-05-14T04:16:40.750Z,98.6653
2023-05-14T04:17:41.249Z,98.5690
2023-05-14T04:18:41.984Z,98.4882
2023-05-14T04:19:42.738Z,98.4140
2023-05-14T04:25:47.636Z,97.5810
2023-05-14T04:26:48.467Z,97.5956
2023-05-14T04:27:49.145Z,97.5097
2023-05-14T04:28:49.227Z,97.3028
2023-05-14T04:29:49.953Z,97.1514
2023-05-14T04:30:50.850Z,96.9692
2023-05-14T04:31:50.962Z,96.6717
2023-05-14T04:32:51.697Z,96.6263
2023-05-14T04:33:51.778Z,96.5675
2023-05-14T04:34:52.458Z,96.6043
2023-05-14T04:35:52.596Z,96.6940
2023-05-14T04:36:53.346Z,96.7271
2023-05-14T04:37:54.193Z,96.4471
2023-05-14T04:38:54.843Z,96.3507
2023-05-14T04:39:55.730Z,96.4782
2023-05-14T04:40:56.475Z,96.5515
2023-05-14T04:41:56.571Z,96.5162
2023-05-14T04:42:57.249Z,96.4326
2023-05-14T04:43:57.932Z,96.2565
2023-05-14T04:44:57.994Z,95.9882
2023-05-14T04:45:58.962Z,95.8569
2023-05-14T04:46:59.714Z,95.4624
2023-05-14T04:47:59.836Z,95.4917
2023-05-14T04:49:00.611Z,95.5190
2023-05-14T04:50:00.689Z,95.2709
2023-05-14T04:57:07.497Z,95.2610
2023-05-14T04:58:07.625Z,95.2567
2023-05-14T04:59:07.959Z,95.0371
2023-05-14T05:00:08.060Z,94.7802
2023-05-14T05:01:08.251Z,94.5049
2023-05-14T05:02:08.322Z,94.6887
2023-05-14T05:03:09.086Z,95.1016
2023-05-14T05:04:09.358Z,95.3181
2023-05-14T05:05:09.941Z,95.0968
2023-05-14T05:06:10.905Z,94.4219
2023-05-14T05:07:10.978Z,94.2853
2023-05-14T05:08:11.745Z,93.6339
2023-05-14T05:09:12.523Z,92.8291
2023-05-14T05:11:16.133Z,92.6113
2023-05-14T05:12:16.897Z,92.9894
2023-05-14T05:13:18.267Z,92.4743
2023-05-14T05:14:18.356Z,91.9004
2023-05-14T05:15:18.419Z,92.3945
2023-05-14T05:16:18.694Z,92.6985
2023-05-14T05:17:18.789Z,93.1377
2023-05-14T05:18:18.878Z,92.5818
2023-05-14T05:19:20.844Z,92.1580
2023-05-14T05:20:19.797Z,92.3180
2023-05-14T05:21:20.363Z,92.4926
2023-05-14T05:22:20.420Z,92.5526
2023-05-14T05:23:21.645Z,91.9752
2023-05-14T05:24:22.382Z,91.8812
2023-05-14T05:25:23.776Z,92.4268
2023-05-14T05:26:23.842Z,92.0412
2023-05-14T05:27:24.542Z,91.4086
2023-05-14T05:28:24.709Z,91.2701
2023-05-14T05:29:25.373Z,90.8202
2023-05-14T05:30:26.254Z,90.7898
2023-05-14T05:31:26.457Z,91.3496
2023-05-14T05:32:27.234Z,90.8695
2023-05-14T05:33:27.286Z,90.4720
2023-05-14T05:34:28.075Z,90.5786
2023-05-14T05:35:28.973Z,90.2294
2023-05-14T05:36:29.079Z,90.3277
2023-05-14T05:37:30.087Z,90.8931
2023-05-14T05:38:30.189Z,90.2782
2023-05-14T05:39:30.266Z,90.0936
2023-05-14T05:40:30.402Z,90.4636
2023-05-14T05:41:30.460Z,91.0031
2023-05-14T05:42:30.866Z,91.3225
2023-05-14T05:43:31.000Z,90.6432
2023-05-14T05:44:31.107Z,90.4373
2023-05-14T05:45:31.793Z,90.1893
2023-05-14T05:46:31.950Z,91.0600
2023-05-14T05:47:32.654Z,90.9132
2023-05-14T05:48:33.309Z,90.4258
2023-05-14T05:49:33.599Z,90.1677
2023-05-14T05:50:34.329Z,89.2336
2023-05-14T05:51:35.070Z,88.9220
2023-05-14T05:52:35.777Z,88.5724
2023-05-14T05:53:35.865Z,88.3433
2023-05-14T05:54:36.627Z,87.6659
2023-05-14T05:55:37.468Z,87.7339
2023-05-14T05:56:37.553Z,87.2315
2023-05-14T05:57:37.641Z,86.9324
2023-05-14T05:58:37.980Z,86.7027
2023-05-14T05:59:38.090Z,86.8462
2023-05-14T06:00:39.076Z,87.1624
2023-05-14T06:01:40.286Z,87.0335
2023-05-14T06:03:45.268Z,88.4443
2023-05-14T06:04:44.990Z,88.1174
2023-05-14T06:05:45.210Z,88.4828
2023-05-14T06:06:45.958Z,88.2020
2023-05-14T06:07:46.692Z,88.4781
2023-05-14T06:09:46.895Z,89.0942
2023-05-14T06:10:47.634Z,90.0975
2023-05-14T06:27:15.538Z,92.6049
2023-05-14T06:28:16.231Z,92.1895
2023-05-14T06:29:17.034Z,92.1806
2023-05-14T06:31:20.477Z,92.2068
2023-05-14T06:32:21.403Z,91.8059
2023-05-14T06:33:21.586Z,92.1877
2023-05-14T06:34:22.282Z,91.9789
2023-05-14T06:35:23.002Z,91.9242
2023-05-14T06:38:26.354Z,91.2748
2023-05-14T06:39:27.021Z,91.2044
2023-05-14T06:40:27.786Z,90.8965
2023-05-14T06:41:27.848Z,90.7931
2023-05-14T06:42:27.941Z,91.0122
2023-05-14T06:43:45.739Z,91.5792
2023-05-14T06:44:29.610Z,91.6603
2023-05-14T06:45:33.189Z,91.2327
2023-05-14T06:46:33.415Z,91.4144
2023-05-14T06:47:34.267Z,91.4900
2023-05-14T06:48:35.174Z,91.4437
2023-05-14T06:50:35.806Z,91.6793
2023-05-14T06:52:37.487Z,90.5661
2023-05-14T07:03:11.796Z,90.9927
2023-05-14T07:03:53.650Z,91.2805
2023-05-14T07:04:54.187Z,91.0242
2023-05-14T07:05:54.382Z,91.1330
2023-05-14T07:06:55.078Z,91.2113
2023-05-14T07:07:55.220Z,91.8737
2023-05-14T07:08:55.897Z,92.5972
2023-05-14T07:09:56.678Z,92.9043
2023-05-14T07:10:56.759Z,92.9318
2023-05-14T07:11:56.840Z,92.8988
2023-05-14T07:12:57.514Z,92.7208
2023-05-14T07:13:58.249Z,92.6794
2023-05-14T07:14:58.367Z,92.5141
2023-05-14T07:15:58.466Z,92.5126
2023-05-14T07:16:58.639Z,92.8835
2023-05-14T07:17:59.423Z,92.8273
2023-05-14T07:18:59.557Z,93.3317
2023-05-14T07:20:00.294Z,93.2486
2023-05-14T07:21:00.427Z,93.0259
2023-05-14T07:22:01.155Z,93.6939
2023-05-14T07:23:01.233Z,93.9291
2023-05-14T07:24:01.315Z,94.0900
2023-05-14T07:25:02.123Z,94.0465
2023-05-14T07:26:02.209Z,93.7836
2023-05-14T07:27:03.009Z,93.2345
2023-05-14T07:28:03.739Z,93.2120
2023-05-14T07:29:04.594Z,93.0694
2023-05-14T07:31:05.947Z,91.3540
2023-05-14T07:32:06.034Z,90.1661
2023-05-14T07:33:06.813Z,89.8931
2023-05-14T07:34:07.707Z,89.9540
2023-05-14T07:35:07.830Z,89.5578
2023-05-14T07:36:08.546Z,88.8264
2023-05-14T07:37:08.626Z,87.5538
2023-05-14T07:38:09.422Z,87.9193
2023-05-14T07:39:09.512Z,87.5560
2023-05-14T07:40:10.290Z,88.2284
2023-05-14T07:41:10.409Z,88.6730
2023-05-14T07:42:10.448Z,89.6264
2023-05-14T07:43:10.544Z,89.5460
2023-05-14T07:44:10.640Z,88.8246
2023-05-14T07:45:10.932Z,88.3073
2023-05-14T07:46:11.105Z,87.4365
2023-05-14T07:47:11.704Z,85.5204
2023-05-14T07:48:12.186Z,83.8612
2023-05-14T07:49:13.092Z,82.2588
2023-05-14T07:50:14.341Z,81.4037
2023-05-14T07:51:16.186Z,79.8387
2023-05-14T07:52:23.281Z,80.5770
2023-05-14T08:00:28.678Z,77.2900
2023-05-14T08:01:28.870Z,78.1766
2023-05-14T08:02:29.016Z,80.8417
2023-05-14T08:03:42.442Z,82.3934
2023-05-14T08:04:31.708Z,84.0822
2023-05-14T08:05:31.786Z,83.7946
2023-05-14T08:06:32.517Z,81.5513
2023-05-14T08:07:35.159Z,78.6405
2023-05-14T08:08:35.259Z,77.0385
2023-05-14T08:09:35.336Z,80.0276
2023-05-14T08:10:36.187Z,81.4018
2023-05-14T08:11:36.332Z,80.2740
2023-05-14T08:12:36.444Z,78.6390
2023-05-14T08:13:37.206Z,77.9469
2023-05-14T08:14:38.063Z,76.9949
2023-05-14T08:15:38.155Z,79.2110
2023-05-14T08:16:38.887Z,78.1728
2023-05-14T08:17:39.045Z,77.6755
2023-05-14T08:19:40.555Z,81.7554
2023-05-14T08:20:40.640Z,82.8102
2023-05-14T08:21:41.484Z,81.7053
2023-05-14T08:22:41.578Z,78.7062
2023-05-14T08:23:42.554Z,78.6582
2023-05-14T08:24:42.654Z,78.1467
2023-05-14T08:25:42.802Z,76.6199
2023-05-14T08:26:42.866Z,78.5835
2023-05-14T08:27:42.983Z,82.1641
2023-05-14T08:28:43.931Z,83.0917
2023-05-14T08:29:44.030Z,84.9158
2023-05-14T08:30:44.801Z,83.9956
2023-05-14T08:31:44.875Z,83.7566
2023-05-14T08:32:45.579Z,83.4782
2023-05-14T08:33:47.035Z,84.0493
2023-05-14T08:34:48.510Z,83.4255
2023-05-14T08:35:49.252Z,82.3842
2023-05-14T08:36:53.667Z,83.1943
2023-05-14T08:40:54.148Z,82.4535
2023-05-14T08:41:55.161Z,80.6317
2023-05-14T08:42:55.497Z,80.6346
2023-05-14T08:43:56.504Z,81.0344
2023-05-14T08:44:56.840Z,80.7842
2023-05-14T08:45:57.664Z,80.8295
2023-05-14T08:46:58.555Z,81.6392
2023-05-14T08:47:59.656Z,80.4263
2023-05-14T08:49:00.579Z,80.4097
2023-05-14T08:50:01.559Z,80.8460
2023-05-14T08:51:02.149Z,81.5205
2023-05-14T08:52:03.603Z,81.5675
2023-05-14T08:53:03.748Z,80.4101
2023-05-14T08:54:05.585Z,79.3412
2023-05-14T08:55:06.607Z,78.5541
2023-05-14T08:56:07.013Z,77.8215
2023-05-14T08:57:07.157Z,76.4329
2023-05-14T08:58:20.974Z,76.8160
2023-05-14T08:59:21.082Z,79.2110
2023-05-14T09:00:21.316Z,78.4789
2023-05-14T09:01:21.734Z,74.4977
2023-05-14T09:02:22.847Z,73.2188
2023-05-14T09:03:23.349Z,73.6735
2023-05-14T09:04:23.544Z,73.9134
2023-05-14T09:05:24.482Z,74.5114
2023-05-14T09:06:24.765Z,71.8661
2023-05-14T09:07:25.273Z,71.0005
2023-05-14T09:08:28.866Z,70.8197
2023-05-14T09:13:32.857Z,73.4173
2023-05-14T09:14:33.006Z,71.5310
2023-05-14T09:15:33.964Z,75.7247
2023-05-14T09:16:34.747Z,74.3802
2023-05-14T09:17:35.426Z,75.5114
2023-05-14T09:18:36.223Z,74.7983
2023-05-14T09:19:36.327Z,74.0867
2023-05-14T09:20:37.074Z,75.5401
2023-05-14T09:21:37.203Z,77.6886
2023-05-14T09:22:58.334Z,78.4320
2023-05-14T09:23:40.532Z,79.1898
2023-05-14T09:24:41.022Z,79.6204
2023-05-14T09:25:41.869Z,79.9831
2023-05-14T09:26:41.994Z,80.1862
2023-05-14T09:27:42.118Z,80.3765
2023-05-14T09:28:42.236Z,80.6622
2023-05-14T09:29:42.406Z,79.9020
2023-05-14T09:30:42.558Z,80.3967
2023-05-14T09:31:43.501Z,81.0965
2023-05-14T09:32:44.399Z,81.4144
2023-05-14T09:33:44.889Z,81.5914
2023-05-14T09:34:45.466Z,82.1437
2023-05-14T09:35:45.661Z,82.6532
2023-05-14T09:36:46.378Z,82.7177
2023-05-14T09:37:46.673Z,80.4130
2023-05-14T09:38:46.935Z,79.4013
2023-05-14T09:39:47.831Z,80.4137
2023-05-14T09:40:48.181Z,80.9396
2023-05-14T09:41:48.302Z,79.4320
2023-05-14T09:42:48.990Z,78.8777
2023-05-14T09:43:49.922Z,78.8287
2023-05-14T09:45:50.709Z,77.5251
2023-05-14T09:46:51.458Z,77.7724
2023-05-14T09:48:51.962Z,78.6171
2023-05-14T09:49:52.095Z,78.0812
2023-05-14T09:50:52.426Z,78.2010
2023-05-14T09:51:53.299Z,76.7104
2023-05-14T09:52:54.120Z,77.7256
2023-05-14T09:53:54.466Z,79.0139
2023-05-14T09:54:55.454Z,79.1759
2023-05-14T09:55:55.663Z,78.9693
2023-05-14T09:56:55.962Z,78.9523
2023-05-14T09:57:57.150Z,81.1322
2023-05-14T09:58:57.274Z,81.9958
2023-05-14T09:59:57.453Z,81.6759
2023-05-14T10:00:57.711Z,81.7393
2023-05-14T10:01:57.884Z,83.0879
2023-05-14T10:02:58.023Z,83.4782
2023-05-14T10:04:02.562Z,83.5043
2023-05-14T10:10:08.921Z,83.1497
2023-05-14T10:11:09.047Z,82.6771
2023-05-14T10:12:09.696Z,84.1320
2023-05-14T10:13:10.263Z,82.9467
2023-05-14T10:14:11.596Z,82.2031
2023-05-14T10:15:12.328Z,81.7442
2023-05-14T10:16:12.927Z,81.7778
2023-05-14T10:17:13.188Z,82.9414
2023-05-14T10:18:13.355Z,82.6229
2023-05-14T10:19:14.020Z,81.9392
2023-05-14T10:20:14.177Z,82.1562
2023-05-14T10:21:14.287Z,82.0399
2023-05-14T10:22:14.959Z,82.2334
2023-05-14T10:23:16.284Z,81.1996
2023-05-14T10:24:16.440Z,82.0770
2023-05-14T10:25:16.561Z,83.1618
2023-05-14T10:26:17.596Z,83.1323
2023-05-14T10:27:17.736Z,82.1562
2023-05-14T10:28:17.900Z,80.6111
2023-05-14T10:29:18.054Z,80.3691
2023-05-14T10:30:18.200Z,80.6140
2023-05-14T10:31:18.414Z,81.4993
2023-05-14T10:32:18.621Z,80.9789
2023-05-14T10:33:18.868Z,82.1333
2023-05-14T10:34:19.056Z,81.7949
2023-05-14T10:35:20.009Z,82.2053
2023-05-14T10:36:20.136Z,81.6809
2023-05-14T10:37:20.673Z,82.6528
2023-05-14T10:38:20.771Z,81.8332
2023-05-14T10:39:21.869Z,81.4237
2023-05-14T10:40:22.927Z,80.9279
2023-05-14T10:41:23.382Z,81.7196
2023-05-14T10:42:23.561Z,80.3949
2023-05-14T10:43:23.638Z,81.3045
2023-05-14T10:44:23.872Z,80.8270
2023-05-14T10:45:24.421Z,79.9472
2023-05-14T10:46:24.655Z,80.2372
2023-05-14T10:47:24.794Z,80.2536
2023-05-14T10:48:25.080Z,80.9529
2023-05-14T10:49:39.718Z,80.4442
2023-05-14T10:50:26.972Z,79.0802
2023-05-14T10:51:27.786Z,78.9999
2023-05-14T10:52:27.914Z,77.1233
2023-05-14T10:53:28.015Z,77.1861
2023-05-14T10:54:29.126Z,78.1059
2023-05-14T10:55:29.316Z,76.5384
2023-05-14T10:56:29.434Z,76.8331
2023-05-14T10:57:30.260Z,78.7018
2023-05-14T10:58:30.420Z,78.0253
2023-05-14T10:59:31.190Z,76.7151
2023-05-14T11:00:31.359Z,77.2064
2023-05-14T11:01:31.494Z,76.1012
2023-05-14T11:02:32.263Z,76.9772
2023-05-14T11:03:33.125Z,77.2769
2023-05-14T11:04:33.425Z,76.4575
2023-05-14T11:05:33.541Z,75.0713
2023-05-14T11:06:33.682Z,74.2996
2023-05-14T11:07:33.787Z,74.6118
2023-05-14T11:08:33.948Z,76.0313
2023-05-14T11:09:34.685Z,70.9579
2023-05-14T11:10:34.889Z,67.8941
2023-05-14T11:11:35.716Z,68.3072
2023-05-14T11:12:35.871Z,65.4332
2023-05-14T11:13:36.002Z,67.9953
2023-05-14T11:14:36.140Z,66.8666
2023-05-14T11:15:36.344Z,67.8158
2023-05-14T11:16:37.185Z,68.8860
2023-05-14T11:17:37.405Z,68.2068
2023-05-14T11:18:38.274Z,70.5155
2023-05-14T11:19:38.395Z,70.8370
2023-05-14T11:20:38.520Z,73.0523
2023-05-14T11:21:39.527Z,73.0426
2023-05-14T11:22:39.681Z,74.8731
2023-05-14T11:23:40.003Z,77.6576
2023-05-14T11:24:40.191Z,79.1862
2023-05-14T11:25:40.803Z,79.0593
2023-05-14T11:26:41.011Z,79.3721
2023-05-14T11:27:41.813Z,79.9617
2023-05-14T11:28:41.949Z,80.1333
2023-05-14T11:29:42.734Z,79.7296
2023-05-14T11:30:43.755Z,80.6004
2023-05-14T11:33:48.005Z,80.1266
2023-05-14T11:34:48.147Z,79.6563
2023-05-14T11:35:48.302Z,79.3847
2023-05-14T11:36:48.454Z,78.7986
2023-05-14T11:37:50.898Z,78.2820
2023-05-14T11:38:51.054Z,78.7913
2023-05-14T11:39:58.359Z,78.4730
2023-05-14T11:42:10.508Z,76.7828
2023-05-14T11:42:59.144Z,75.4877
2023-05-14T11:43:59.992Z,76.9838
2023-05-14T11:45:00.755Z,76.9705
2023-05-14T11:46:00.960Z,76.6916
2023-05-14T11:47:01.793Z,76.7643
2023-05-14T11:48:01.946Z,77.2172
2023-05-14T11:49:02.723Z,76.0838
2023-05-14T11:50:19.972Z,76.6604
2023-05-14T11:51:42.306Z,77.1558
2023-05-14T11:52:43.341Z,77.7369
2023-05-14T11:53:44.797Z,78.3508
2023-05-14T11:54:45.334Z,76.9180
2023-05-14T11:55:45.674Z,75.4339
2023-05-14T11:57:03.262Z,75.9570
2023-05-14T11:57:47.835Z,75.5118
2023-05-14T11:58:48.623Z,75.0509
2023-05-14T11:59:48.767Z,74.5426
2023-05-14T12:00:50.053Z,74.9726
2023-05-14T12:01:50.993Z,74.0088
2023-05-14T12:02:51.214Z,72.5843
2023-05-14T12:03:52.325Z,71.9551
2023-05-14T12:04:53.831Z,71.3488
2023-05-14T12:05:54.602Z,73.8542
2023-05-14T12:06:54.948Z,72.8509
2023-05-14T12:07:55.496Z,74.1636
2023-05-14T12:08:55.948Z,76.1109
2023-05-14T12:09:56.169Z,78.1473
2023-05-14T12:10:56.447Z,77.7688
2023-05-14T12:11:56.906Z,77.3858
2023-05-14T12:12:57.314Z,77.8079
2023-05-14T12:13:57.709Z,77.5061
2023-05-14T12:14:58.050Z,78.2551
2023-05-14T12:15:58.262Z,78.6675
2023-05-14T12:16:58.645Z,79.8566
2023-05-14T12:18:59.550Z,82.1813
2023-05-14T12:19:59.737Z,83.5061
2023-05-14T12:21:01.497Z,83.4816
2023-05-14T12:22:02.291Z,84.2056
2023-05-14T12:23:02.406Z,84.5427
2023-05-14T12:24:03.345Z,84.9965
2023-05-14T12:25:04.377Z,85.5802
2023-05-14T12:26:04.572Z,85.6698
2023-05-14T12:27:05.635Z,85.7486
2023-05-14T12:28:05.979Z,86.4133
2023-05-14T12:29:06.331Z,86.2341
2023-05-14T12:31:07.389Z,87.4148
2023-05-14T12:32:08.842Z,87.4475
2023-05-14T12:33:09.710Z,87.8585
2023-05-14T12:34:09.856Z,87.9140
2023-05-14T12:35:10.631Z,88.3401
2023-05-14T12:36:21.188Z,88.8909
2023-05-14T12:37:13.912Z,89.0822
2023-05-14T12:38:15.020Z,89.5114
2023-05-14T12:39:15.466Z,90.1764
2023-05-14T12:40:15.625Z,90.0931
2023-05-14T12:41:15.960Z,90.0811
2023-05-14T12:42:17.652Z,89.9020
2023-05-14T12:43:17.818Z,90.4073
2023-05-14T12:44:17.951Z,90.4729
2023-05-14T12:45:18.068Z,91.1178
2023-05-14T12:46:18.193Z,90.9086
2023-05-14T12:47:18.423Z,90.7185
2023-05-14T12:48:18.574Z,90.0087
2023-05-14T12:49:18.728Z,90.3059
2023-05-14T12:50:19.496Z,89.8282
2023-05-14T12:52:36.124Z,89.7948
2023-05-14T12:53:24.047Z,90.9900
2023-05-14T13:03:38.265Z,89.8847
2023-05-14T13:04:38.659Z,87.9140
2023-05-14T13:05:41.422Z,88.1975
2023-05-14T13:09:44.265Z,88.6009
2023-05-14T13:10:44.421Z,88.4328
2023-05-14T13:11:44.563Z,87.9328
2023-05-14T13:12:44.692Z,88.7508
2023-05-14T13:13:44.834Z,87.3425
2023-05-14T13:14:44.982Z,84.0679
2023-05-14T13:15:45.182Z,83.8736
2023-05-14T13:16:45.408Z,83.8904
2023-05-14T13:17:45.682Z,83.3840
2023-05-14T13:18:45.846Z,83.3598
2023-05-14T13:19:45.968Z,84.7400
2023-05-14T13:20:46.127Z,84.5410
2023-05-14T13:21:46.272Z,84.3092
2023-05-14T13:22:46.392Z,85.1015
2023-05-14T13:23:46.532Z,84.0943
2023-05-14T13:24:46.887Z,83.6402
2023-05-14T13:25:49.671Z,83.5369
2023-05-14T13:26:47.351Z,83.3834
2023-05-14T13:27:47.503Z,82.8487
2023-05-14T13:28:47.703Z,82.1996
2023-05-14T13:30:49.049Z,83.3740
2023-05-14T13:31:49.181Z,82.6078
2023-05-14T13:33:50.168Z,82.5301
2023-05-14T13:34:50.338Z,81.7820
2023-05-14T13:35:51.288Z,80.7328
2023-05-14T13:36:52.471Z,81.8744
2023-05-14T13:37:53.973Z,81.9512
2023-05-14T13:38:55.594Z,81.7929
2023-05-14T13:39:56.012Z,81.0624
2023-05-14T13:40:56.389Z,81.6254
2023-05-14T13:41:56.598Z,81.2811
2023-05-14T13:42:57.525Z,81.4660
2023-05-14T13:43:58.308Z,81.0317
2023-05-14T13:44:58.477Z,79.4765
2023-05-14T13:45:58.727Z,78.6896
2023-05-14T13:46:58.916Z,79.7414
2023-05-14T13:47:59.115Z,78.4498
2023-05-14T13:48:59.323Z,78.9942
2023-05-14T13:51:00.188Z,77.2439
2023-05-14T13:52:00.359Z,79.4662
2023-05-14T13:53:01.398Z,81.7622
2023-05-14T13:54:02.223Z,82.0772
2023-05-14T13:55:02.385Z,81.5223
2023-05-14T13:56:03.234Z,81.4846
2023-05-14T13:57:03.470Z,80.8555
2023-05-14T13:58:04.070Z,79.0392
2023-05-14T13:59:04.845Z,77.0941
2023-05-14T14:00:05.751Z,75.5426